createdAt,value
2019-04-27T00:01:24.685Z,975.47
2019-04-27T00:02:26.519Z,975.50
2019-04-27T00:04:29.116Z,975.46
2019-04-27T00:05:32.329Z,975.43
2019-04-27T00:07:33.755Z,975.45
2019-04-27T00:08:38.760Z,975.44
2019-04-27T00:10:37.908Z,975.41
2019-04-27T00:11:42.195Z,975.38
2019-04-27T00:13:43.983Z,975.38
2019-04-27T00:14:43.902Z,975.38
2019-04-27T00:16:50.504Z,975.38
2019-04-27T00:17:49.289Z,975.42
2019-04-27T00:19:51.110Z,975.44
2019-04-27T00:20:51.339Z,975.43
2019-04-27T00:22:55.515Z,975.43
2019-04-27T00:23:55.750Z,975.39
2019-04-27T00:25:59.904Z,975.38
2019-04-27T00:27:00.140Z,975.36
2019-04-27T00:29:04.308Z,975.30
2019-04-27T00:30:04.545Z,975.30
2019-04-27T00:31:57.617Z,975.28
2019-04-27T00:32:57.852Z,975.26
2019-04-27T00:35:03.764Z,975.21
2019-04-27T00:36:03.039Z,975.21
2019-04-27T00:38:06.425Z,975.16
2019-04-27T00:39:06.671Z,975.18
2019-04-27T00:41:10.815Z,975.14
2019-04-27T00:42:11.047Z,975.15
2019-04-27T00:44:15.220Z,975.15
2019-04-27T00:45:15.454Z,975.16
2019-04-27T00:47:19.596Z,975.14
2019-04-27T00:48:19.837Z,975.10
2019-04-27T00:50:24.012Z,975.08
2019-04-27T00:51:24.244Z,975.11
2019-04-27T00:53:28.418Z,975.03
2019-04-27T00:54:28.653Z,975.01
2019-04-27T00:56:33.842Z,974.99
2019-04-27T00:57:33.319Z,975.03
2019-04-27T00:59:37.203Z,975.05
2019-04-27T01:00:37.438Z,974.98
2019-04-27T01:02:43.430Z,974.98
2019-04-27T01:03:43.075Z,975.01
2019-04-27T01:05:45.995Z,974.97
2019-04-27T01:06:46.242Z,974.97
2019-04-27T01:08:50.399Z,974.94
2019-04-27T01:09:50.637Z,974.94
2019-04-27T01:11:43.717Z,974.93
2019-04-27T01:12:43.954Z,974.92
2019-04-27T01:14:48.129Z,974.87
2019-04-27T01:15:48.374Z,974.86
2019-04-27T01:17:52.514Z,974.85
2019-04-27T01:18:52.753Z,974.86
2019-04-27T01:20:56.920Z,974.85
2019-04-27T01:21:58.572Z,974.85
2019-04-27T01:24:01.324Z,974.88
2019-04-27T01:25:01.560Z,974.92
2019-04-27T01:27:05.705Z,974.94
2019-04-27T01:28:05.943Z,974.90
2019-04-27T01:30:10.123Z,974.95
2019-04-27T01:31:10.349Z,974.91
2019-04-27T01:33:14.501Z,974.87
2019-04-27T01:34:14.736Z,974.87
2019-04-27T01:36:19.076Z,974.83
2019-04-27T01:37:19.704Z,974.81
2019-04-27T01:39:23.318Z,974.92
2019-04-27T01:40:23.557Z,974.91
2019-04-27T01:42:29.389Z,974.93
2019-04-27T01:43:28.503Z,974.87
2019-04-27T01:45:32.106Z,974.86
2019-04-27T01:46:32.341Z,974.84
2019-04-27T01:48:36.491Z,974.85
2019-04-27T01:49:36.733Z,974.87
2019-04-27T01:51:29.834Z,974.84
2019-04-27T01:52:30.898Z,974.85
2019-04-27T01:54:34.243Z,974.90
2019-04-27T01:55:34.479Z,974.84
2019-04-27T01:57:38.731Z,974.84
2019-04-27T01:58:39.301Z,974.85
2019-04-27T02:00:43.037Z,974.82
2019-04-27T02:01:43.272Z,974.86
2019-04-27T02:03:48.881Z,974.83
2019-04-27T02:04:49.323Z,974.82
2019-04-27T02:06:51.830Z,974.76
2019-04-27T02:07:52.071Z,974.79
2019-04-27T02:09:56.233Z,974.76
2019-04-27T02:10:56.470Z,974.76
2019-04-27T02:13:00.625Z,974.72
2019-04-27T02:14:00.862Z,974.69
2019-04-27T02:16:05.032Z,974.69
2019-04-27T02:17:05.266Z,974.63
2019-04-27T02:19:11.344Z,974.59
2019-04-27T02:20:09.805Z,974.56
2019-04-27T02:22:13.829Z,974.58
2019-04-27T02:23:14.064Z,974.56
2019-04-27T02:25:18.924Z,974.53
2019-04-27T02:26:19.233Z,974.51
2019-04-27T02:28:22.627Z,974.51
2019-04-27T02:29:22.863Z,974.54
2019-04-27T02:31:15.968Z,974.51
2019-04-27T02:32:16.210Z,974.53
2019-04-27T02:34:20.359Z,974.50
2019-04-27T02:35:20.595Z,974.51
2019-04-27T02:37:24.770Z,974.50
2019-04-27T02:38:25.006Z,974.49
2019-04-27T02:40:30.532Z,974.51
2019-04-27T02:41:29.809Z,974.50
2019-04-27T02:43:33.566Z,974.51
2019-04-27T02:44:33.803Z,974.48
2019-04-27T02:46:39.507Z,974.47
2019-04-27T02:47:40.692Z,974.52
2019-04-27T02:49:42.357Z,974.53
2019-04-27T02:50:42.599Z,974.49
2019-04-27T02:52:46.769Z,974.48
2019-04-27T02:53:47.007Z,974.50
2019-04-27T02:55:51.178Z,974.51
2019-04-27T02:56:52.644Z,974.51
2019-04-27T02:58:55.570Z,974.48
2019-04-27T02:59:55.805Z,974.52
2019-04-27T03:01:50.360Z,974.49
2019-04-27T03:02:51.058Z,974.52
2019-04-27T03:04:53.300Z,974.48
2019-04-27T03:05:53.539Z,974.55
2019-04-27T03:07:59.776Z,974.51
2019-04-27T03:09:00.511Z,974.51
2019-04-27T03:11:02.121Z,974.53
2019-04-27T03:12:02.365Z,974.53
2019-04-27T03:14:06.507Z,974.51
2019-04-27T03:15:06.741Z,974.54
2019-04-27T03:17:10.916Z,974.54
2019-04-27T03:18:11.150Z,974.53
2019-04-27T03:20:15.308Z,974.52
2019-04-27T03:21:15.549Z,974.55
2019-04-27T03:23:20.048Z,974.53
2019-04-27T03:24:22.800Z,974.53
2019-04-27T03:26:24.127Z,974.46
2019-04-27T03:27:24.361Z,974.48
2019-04-27T03:29:30.626Z,974.49
2019-04-27T03:30:31.762Z,974.54
2019-04-27T03:32:32.975Z,974.49
2019-04-27T03:33:33.247Z,974.47
2019-04-27T03:35:41.447Z,974.50
2019-04-27T03:36:39.566Z,974.51
2019-04-27T03:38:41.720Z,974.48
2019-04-27T03:39:41.956Z,974.50
2019-04-27T03:41:35.060Z,974.49
2019-04-27T03:42:37.336Z,974.51
2019-04-27T03:44:39.905Z,974.49
2019-04-27T03:45:40.068Z,974.49
2019-04-27T03:47:43.855Z,974.53
2019-04-27T03:48:44.089Z,974.51
2019-04-27T03:50:50.626Z,974.47
2019-04-27T03:51:49.944Z,974.50
2019-04-27T03:53:52.648Z,974.48
2019-04-27T03:54:52.887Z,974.51
2019-04-27T03:56:59.448Z,974.46
2019-04-27T03:57:57.286Z,974.48
2019-04-27T04:00:01.463Z,974.46
2019-04-27T04:01:01.672Z,974.46
2019-04-27T04:03:05.850Z,974.46
2019-04-27T04:04:06.086Z,974.43
2019-04-27T04:06:10.895Z,974.51
2019-04-27T04:07:10.471Z,974.45
2019-04-27T04:09:14.650Z,974.48
2019-04-27T04:10:14.885Z,974.46
2019-04-27T04:12:19.811Z,974.44
2019-04-27T04:13:22.265Z,974.51
2019-04-27T04:15:23.451Z,974.52
2019-04-27T04:16:23.687Z,974.54
2019-04-27T04:18:29.354Z,974.52
2019-04-27T04:19:31.502Z,974.54
2019-04-27T04:21:21.190Z,974.60
2019-04-27T04:22:21.430Z,974.58
2019-04-27T04:24:28.657Z,974.66
2019-04-27T04:25:25.830Z,974.58
2019-04-27T04:27:30.140Z,974.63
2019-04-27T04:28:30.242Z,974.63
2019-04-27T04:30:34.403Z,974.70
2019-04-27T04:31:34.659Z,974.72
2019-04-27T04:33:40.301Z,974.74
2019-04-27T04:34:39.962Z,974.69
2019-04-27T04:36:43.241Z,974.68
2019-04-27T04:37:43.476Z,974.68
2019-04-27T04:39:51.018Z,974.65
2019-04-27T04:40:50.164Z,974.68
2019-04-27T04:42:52.059Z,974.68
2019-04-27T04:43:52.293Z,974.70
2019-04-27T04:45:56.452Z,974.69
2019-04-27T04:46:56.687Z,974.70
2019-04-27T04:49:00.867Z,974.75
2019-04-27T04:50:11.318Z,974.74
2019-04-27T04:51:54.183Z,974.79
2019-04-27T04:52:54.417Z,974.76
2019-04-27T04:54:59.376Z,974.71
2019-04-27T04:56:00.357Z,974.67
2019-04-27T04:58:03.003Z,974.65
2019-04-27T04:59:03.237Z,974.66
2019-04-27T05:01:09.723Z,974.72
2019-04-27T05:02:07.630Z,974.71
2019-04-27T05:04:11.810Z,974.67
2019-04-27T05:05:12.052Z,974.66
2019-04-27T05:07:16.234Z,974.68
2019-04-27T05:08:16.472Z,974.70
2019-04-27T05:10:20.625Z,974.68
2019-04-27T05:11:20.860Z,974.72
2019-04-27T05:13:25.030Z,974.72
2019-04-27T05:14:25.271Z,974.72
2019-04-27T05:16:29.417Z,974.70
2019-04-27T05:17:29.759Z,974.70
2019-04-27T05:19:33.840Z,974.73
2019-04-27T05:20:34.074Z,974.68
2019-04-27T05:22:39.330Z,974.70
2019-04-27T05:23:38.832Z,974.73
2019-04-27T05:25:42.641Z,974.77
2019-04-27T05:26:42.873Z,974.75
2019-04-27T05:28:49.106Z,974.78
2019-04-27T05:29:48.839Z,974.71
2019-04-27T05:31:40.370Z,974.73
2019-04-27T05:32:40.604Z,974.72
2019-04-27T05:34:45.270Z,974.69
2019-04-27T05:35:45.515Z,974.65
2019-04-27T05:37:50.174Z,974.71
2019-04-27T05:38:50.406Z,974.75
2019-04-27T05:40:54.562Z,974.75
2019-04-27T05:41:54.796Z,974.77
2019-04-27T05:43:59.233Z,974.85
2019-04-27T05:44:59.205Z,974.87
2019-04-27T05:47:05.293Z,974.88
2019-04-27T05:48:03.608Z,974.91
2019-04-27T05:50:09.070Z,974.92
2019-04-27T05:51:09.177Z,974.85
2019-04-27T05:53:12.171Z,974.86
2019-04-27T05:54:12.406Z,974.86
2019-04-27T05:56:16.584Z,974.83
2019-04-27T05:57:16.823Z,974.84
2019-04-27T05:59:21.008Z,974.80
2019-04-27T06:00:21.244Z,974.82
2019-04-27T06:02:25.410Z,974.93
2019-04-27T06:03:25.657Z,974.93
2019-04-27T06:05:29.823Z,974.93
2019-04-27T06:06:30.062Z,974.90
2019-04-27T06:08:34.245Z,974.84
2019-04-27T06:09:34.481Z,974.82
2019-04-27T06:11:28.608Z,974.89
2019-04-27T06:12:29.411Z,974.87
2019-04-27T06:14:31.978Z,974.83
2019-04-27T06:15:32.215Z,974.82
2019-04-27T06:17:36.371Z,974.80
2019-04-27T06:18:36.609Z,974.77
2019-04-27T06:20:51.262Z,974.77
2019-04-27T06:21:41.023Z,974.75
2019-04-27T06:23:45.207Z,974.80
2019-04-27T06:24:45.447Z,974.76
2019-04-27T06:26:49.927Z,974.74
2019-04-27T06:27:49.841Z,974.80
2019-04-27T06:29:54.020Z,974.93
2019-04-27T06:30:54.258Z,974.81
2019-04-27T06:32:59.465Z,974.85
2019-04-27T06:33:59.708Z,974.83
2019-04-27T06:36:02.831Z,974.77
2019-04-27T06:37:03.068Z,974.83
2019-04-27T06:39:07.268Z,974.77
2019-04-27T06:40:07.501Z,974.81
2019-04-27T06:42:18.225Z,974.78
2019-04-27T06:43:11.884Z,974.78
2019-04-27T06:45:16.060Z,974.77
2019-04-27T06:46:16.297Z,974.82
2019-04-27T06:48:20.452Z,974.86
2019-04-27T06:49:20.690Z,974.85
2019-04-27T06:51:13.795Z,974.76
2019-04-27T06:52:14.034Z,974.79
2019-04-27T06:54:21.051Z,974.82
2019-04-27T06:55:18.851Z,974.85
2019-04-27T06:57:22.609Z,974.77
2019-04-27T06:58:22.850Z,974.87
2019-04-27T07:00:28.761Z,974.73
2019-04-27T07:01:27.262Z,974.80
2019-04-27T07:03:31.423Z,974.81
2019-04-27T07:04:31.664Z,974.78
2019-04-27T07:06:35.839Z,974.84
2019-04-27T07:07:36.079Z,974.89
2019-04-27T07:09:40.255Z,974.86
2019-04-27T07:10:40.495Z,974.88
2019-04-27T07:12:44.656Z,974.86
2019-04-27T07:13:44.897Z,974.84
2019-04-27T07:15:49.077Z,974.82
2019-04-27T07:16:50.868Z,974.78
2019-04-27T07:18:53.474Z,974.76
2019-04-27T07:19:53.714Z,974.81
2019-04-27T07:21:46.821Z,974.75
2019-04-27T07:22:47.068Z,974.58
2019-04-27T07:24:51.224Z,974.81
2019-04-27T07:25:51.465Z,974.61
2019-04-27T07:27:55.653Z,974.83
2019-04-27T07:28:55.896Z,974.90
2019-04-27T07:31:00.075Z,974.91
2019-04-27T07:32:00.318Z,974.75
2019-04-27T07:34:04.480Z,974.91
2019-04-27T07:35:04.724Z,974.84
2019-04-27T07:37:09.363Z,974.86
2019-04-27T07:38:09.925Z,974.61
2019-04-27T07:40:13.335Z,974.76
2019-04-27T07:41:13.576Z,974.77
2019-04-27T07:43:18.781Z,974.72
2019-04-27T07:44:19.340Z,974.68
2019-04-27T07:46:22.158Z,974.52
2019-04-27T07:47:22.402Z,974.67
2019-04-27T07:49:26.562Z,974.71
2019-04-27T07:50:26.805Z,974.74
2019-04-27T07:52:30.988Z,974.74
2019-04-27T07:53:31.232Z,974.74
2019-04-27T07:55:35.414Z,974.66
2019-04-27T07:56:35.659Z,974.70
2019-04-27T07:58:39.822Z,974.67
2019-04-27T07:59:42.095Z,974.74
2019-04-27T08:01:33.174Z,974.81
2019-04-27T08:02:33.420Z,974.89
2019-04-27T08:04:37.583Z,974.58
2019-04-27T08:05:39.157Z,974.97
2019-04-27T08:07:42.013Z,974.58
2019-04-27T08:08:42.258Z,974.65
2019-04-27T08:10:48.445Z,974.72
2019-04-27T08:11:46.688Z,974.78
2019-04-27T08:13:50.847Z,974.46
2019-04-27T08:14:51.095Z,974.54
2019-04-27T08:16:55.281Z,974.55
2019-04-27T08:17:55.526Z,974.49
2019-04-27T08:19:59.737Z,974.66
2019-04-27T08:20:59.930Z,974.52
2019-04-27T08:23:04.116Z,974.48
2019-04-27T08:24:04.364Z,975.02
2019-04-27T08:26:08.824Z,974.64
2019-04-27T08:27:09.421Z,974.94
2019-04-27T08:29:12.958Z,974.97
2019-04-27T08:30:13.194Z,974.64
2019-04-27T08:32:17.378Z,974.54
2019-04-27T08:33:19.048Z,974.62
2019-04-27T08:35:21.785Z,974.68
2019-04-27T08:36:22.029Z,975.17
2019-04-27T08:38:26.213Z,975.24
2019-04-27T08:39:26.454Z,975.13
2019-04-27T08:41:21.223Z,974.53
2019-04-27T08:42:19.807Z,975.13
2019-04-27T08:44:23.968Z,975.08
2019-04-27T08:45:24.213Z,975.15
2019-04-27T08:47:29.331Z,975.21
2019-04-27T08:48:34.641Z,975.21
2019-04-27T08:50:32.809Z,975.39
2019-04-27T08:51:33.054Z,975.71
2019-04-27T08:53:37.241Z,976.12
2019-04-27T08:54:39.244Z,975.78
2019-04-27T08:56:41.680Z,976.46
2019-04-27T08:57:41.927Z,976.56
2019-04-27T08:59:46.098Z,976.57
2019-04-27T09:00:46.345Z,976.46
2019-04-27T09:02:50.554Z,976.34
2019-04-27T09:03:50.785Z,976.35
2019-04-27T09:05:54.983Z,976.22
2019-04-27T09:06:55.294Z,976.11
2019-04-27T09:08:59.402Z,976.24
2019-04-27T09:09:59.703Z,976.06
2019-04-27T09:11:52.767Z,974.23
2019-04-27T09:12:53.727Z,974.27
2019-04-27T09:14:59.108Z,974.07
2019-04-27T09:15:57.429Z,974.06
2019-04-27T09:18:01.622Z,974.12
2019-04-27T09:19:01.869Z,974.15
2019-04-27T09:21:06.061Z,974.37
2019-04-27T09:22:13.585Z,975.04
2019-04-27T09:24:10.483Z,974.93
2019-04-27T09:25:10.727Z,974.90
2019-04-27T09:27:17.185Z,974.53
2019-04-27T09:28:15.155Z,974.32
2019-04-27T09:30:19.322Z,974.33
2019-04-27T09:31:19.690Z,974.55
2019-04-27T09:33:23.761Z,974.47
2019-04-27T09:34:24.005Z,974.50
2019-04-27T09:36:28.194Z,974.50
2019-04-27T09:37:28.438Z,974.51
2019-04-27T09:39:32.601Z,974.42
2019-04-27T09:40:32.848Z,974.07
2019-04-27T09:42:38.339Z,974.57
2019-04-27T09:43:37.282Z,974.71
2019-04-27T09:45:41.455Z,974.16
2019-04-27T09:46:41.704Z,974.65
2019-04-27T09:48:46.585Z,974.69
2019-04-27T09:49:46.257Z,974.83
2019-04-27T09:51:39.261Z,974.20
2019-04-27T09:52:39.506Z,974.06
2019-04-27T09:54:43.677Z,974.03
2019-04-27T09:55:43.925Z,974.05
2019-04-27T09:57:48.118Z,973.89
2019-04-27T09:58:48.357Z,973.70
2019-04-27T10:00:52.524Z,973.70
2019-04-27T10:01:52.770Z,973.72
2019-04-27T10:03:56.971Z,973.61
2019-04-27T10:04:57.213Z,973.56
2019-04-27T10:07:01.415Z,973.58
2019-04-27T10:08:01.658Z,973.59
2019-04-27T10:10:06.440Z,973.53
2019-04-27T10:11:06.110Z,973.60
2019-04-27T10:13:10.259Z,973.56
2019-04-27T10:14:10.504Z,973.64
2019-04-27T10:16:14.678Z,973.61
2019-04-27T10:17:14.922Z,973.57
2019-04-27T10:19:28.707Z,973.51
2019-04-27T10:20:20.017Z,973.50
2019-04-27T10:22:27.546Z,973.51
2019-04-27T10:23:23.768Z,973.47
2019-04-27T10:25:27.930Z,973.46
2019-04-27T10:26:28.170Z,973.50
2019-04-27T10:28:32.355Z,973.46
2019-04-27T10:29:32.598Z,973.45
2019-04-27T10:31:25.690Z,973.43
2019-04-27T10:32:26.173Z,973.37
2019-04-27T10:34:30.119Z,973.33
2019-04-27T10:35:30.363Z,973.37
2019-04-27T10:37:34.542Z,973.29
2019-04-27T10:38:35.993Z,973.20
2019-04-27T10:40:38.947Z,973.33
2019-04-27T10:41:39.189Z,973.32
2019-04-27T10:43:43.369Z,973.15
2019-04-27T10:44:43.608Z,973.17
2019-04-27T10:46:47.773Z,973.18
2019-04-27T10:47:49.515Z,973.18
2019-04-27T10:49:52.184Z,973.19
2019-04-27T10:50:52.425Z,973.18
2019-04-27T10:52:59.254Z,973.03
2019-04-27T10:53:56.840Z,973.17
2019-04-27T10:56:00.995Z,973.17
2019-04-27T10:57:01.235Z,973.25
2019-04-27T10:59:06.234Z,973.08
2019-04-27T11:00:06.703Z,973.09
2019-04-27T11:01:58.735Z,973.10
2019-04-27T11:02:58.973Z,973.09
2019-04-27T11:05:03.153Z,973.07
2019-04-27T11:06:03.390Z,973.03
2019-04-27T11:08:07.563Z,973.04
2019-04-27T11:09:07.812Z,973.11
2019-04-27T11:11:11.957Z,973.04
2019-04-27T11:12:12.196Z,973.04
2019-04-27T11:14:16.370Z,973.05
2019-04-27T11:15:16.607Z,973.06
2019-04-27T11:17:20.759Z,973.03
2019-04-27T11:18:20.995Z,973.05
2019-04-27T11:20:27.563Z,973.01
2019-04-27T11:21:26.175Z,973.00
2019-04-27T11:23:29.577Z,973.04
2019-04-27T11:24:29.810Z,973.00
2019-04-27T11:26:33.963Z,972.94
2019-04-27T11:27:34.205Z,972.97
2019-04-27T11:29:38.377Z,972.99
2019-04-27T11:30:38.613Z,972.96
2019-04-27T11:32:42.765Z,973.06
2019-04-27T11:33:43.016Z,973.10
2019-04-27T11:35:47.180Z,973.10
2019-04-27T11:36:47.425Z,973.07
2019-04-27T11:38:51.594Z,973.20
2019-04-27T11:39:51.833Z,973.16
2019-04-27T11:41:44.918Z,973.11
2019-04-27T11:42:45.161Z,973.00
2019-04-27T11:44:49.329Z,973.17
2019-04-27T11:45:49.571Z,973.16
2019-04-27T11:47:55.327Z,973.10
2019-04-27T11:48:53.964Z,973.06
2019-04-27T11:50:58.137Z,973.00
2019-04-27T11:51:58.376Z,972.98
2019-04-27T11:54:02.549Z,973.07
2019-04-27T11:55:02.788Z,972.99
2019-04-27T11:57:06.941Z,973.06
2019-04-27T11:58:07.180Z,973.07
2019-04-27T12:00:11.866Z,973.00
2019-04-27T12:01:12.130Z,973.13
2019-04-27T12:03:17.751Z,973.00
2019-04-27T12:04:17.989Z,973.03
2019-04-27T12:06:23.672Z,973.02
2019-04-27T12:07:23.912Z,972.98
2019-04-27T12:09:28.091Z,973.04
2019-04-27T12:10:28.335Z,972.99
2019-04-27T12:12:32.490Z,972.97
2019-04-27T12:13:32.732Z,972.93
2019-04-27T12:15:36.917Z,972.99
2019-04-27T12:16:37.158Z,973.03
2019-04-27T12:18:41.320Z,973.02
2019-04-27T12:19:41.556Z,973.02
2019-04-27T12:21:36.234Z,973.07
2019-04-27T12:22:34.900Z,973.10
2019-04-27T12:24:39.078Z,973.06
2019-04-27T12:25:39.316Z,973.05
2019-04-27T12:27:43.469Z,973.12
2019-04-27T12:28:43.708Z,973.11
2019-04-27T12:30:47.888Z,973.05
2019-04-27T12:31:49.099Z,973.08
2019-04-27T12:33:52.302Z,973.09
2019-04-27T12:34:52.520Z,972.94
2019-04-27T12:36:56.699Z,973.00
2019-04-27T12:37:56.939Z,972.99
2019-04-27T12:40:01.097Z,972.90
2019-04-27T12:41:01.334Z,972.88
2019-04-27T12:43:05.526Z,972.96
2019-04-27T12:44:07.133Z,972.84
2019-04-27T12:46:09.949Z,972.81
2019-04-27T12:47:10.189Z,972.85
2019-04-27T12:49:16.011Z,972.74
2019-04-27T12:50:14.583Z,972.76
2019-04-27T12:52:18.756Z,972.79
2019-04-27T12:53:18.997Z,972.84
2019-04-27T12:55:23.179Z,972.76
2019-04-27T12:56:23.417Z,972.81
2019-04-27T12:58:27.574Z,972.79
2019-04-27T12:59:27.813Z,972.69
2019-04-27T13:01:20.918Z,972.63
2019-04-27T13:02:21.156Z,972.65
2019-04-27T13:04:25.320Z,972.58
2019-04-27T13:05:25.890Z,972.54
2019-04-27T13:07:29.736Z,972.54
2019-04-27T13:08:29.974Z,972.51
2019-04-27T13:10:34.148Z,972.54
2019-04-27T13:11:34.387Z,972.48
2019-04-27T13:13:38.539Z,972.51
2019-04-27T13:14:38.785Z,972.52
2019-04-27T13:16:42.954Z,972.52
2019-04-27T13:17:43.190Z,972.50
2019-04-27T13:19:47.339Z,972.48
2019-04-27T13:20:47.579Z,972.50
2019-04-27T13:22:51.751Z,972.53
2019-04-27T13:24:02.016Z,972.50
2019-04-27T13:25:56.514Z,972.53
2019-04-27T13:26:56.400Z,972.58
2019-04-27T13:29:00.555Z,972.57
2019-04-27T13:30:00.792Z,972.57
2019-04-27T13:31:55.779Z,972.53
2019-04-27T13:32:56.116Z,972.46
2019-04-27T13:34:58.285Z,972.48
2019-04-27T13:35:58.528Z,972.33
2019-04-27T13:38:02.703Z,972.32
2019-04-27T13:39:02.937Z,972.40
2019-04-27T13:41:07.087Z,972.47
2019-04-27T13:42:07.331Z,972.35
2019-04-27T13:44:11.501Z,972.29
2019-04-27T13:45:11.741Z,972.29
2019-04-27T13:47:17.186Z,972.29
2019-04-27T13:48:16.152Z,972.28
2019-04-27T13:50:20.306Z,972.27
2019-04-27T13:51:20.544Z,972.26
2019-04-27T13:53:26.249Z,972.26
2019-04-27T13:54:27.218Z,972.21
2019-04-27T13:56:29.116Z,972.22
2019-04-27T13:57:29.355Z,972.11
2019-04-27T13:59:33.526Z,972.20
2019-04-27T14:00:34.775Z,972.27
2019-04-27T14:02:37.941Z,972.21
2019-04-27T14:03:38.188Z,972.13
2019-04-27T14:05:42.333Z,972.11
2019-04-27T14:06:42.575Z,972.00
2019-04-27T14:08:46.746Z,971.97
2019-04-27T14:09:48.615Z,972.07
2019-04-27T14:11:40.063Z,972.01
2019-04-27T14:12:40.304Z,971.97
2019-04-27T14:14:44.477Z,972.05
2019-04-27T14:15:44.716Z,971.97
2019-04-27T14:17:49.966Z,972.00
2019-04-27T14:18:49.131Z,971.94
2019-04-27T14:20:53.290Z,971.95
2019-04-27T14:21:53.530Z,971.95
2019-04-27T14:23:58.606Z,971.93
2019-04-27T14:24:58.480Z,971.93
2019-04-27T14:27:02.090Z,971.95
2019-04-27T14:28:02.328Z,971.91
2019-04-27T14:30:06.503Z,971.91
2019-04-27T14:31:06.745Z,971.94
2019-04-27T14:33:10.924Z,971.85
2019-04-27T14:34:11.167Z,971.86
2019-04-27T14:36:15.318Z,971.83
2019-04-27T14:37:15.554Z,971.77
2019-04-27T14:39:19.723Z,971.68
2019-04-27T14:40:19.961Z,971.69
2019-04-27T14:42:24.115Z,971.70
2019-04-27T14:43:24.353Z,971.67
2019-04-27T14:45:28.694Z,971.69
2019-04-27T14:46:30.510Z,971.64
2019-04-27T14:48:32.929Z,971.70
2019-04-27T14:49:33.168Z,971.63
2019-04-27T14:51:26.246Z,971.68
2019-04-27T14:52:26.485Z,971.71
2019-04-27T14:54:45.135Z,971.69
2019-04-27T14:55:30.894Z,971.69
2019-04-27T14:57:35.073Z,971.65
2019-04-27T14:58:35.310Z,971.65
2019-04-27T15:00:39.460Z,971.65
2019-04-27T15:01:40.147Z,971.66
2019-04-27T15:03:43.877Z,971.70
2019-04-27T15:04:45.547Z,971.69
2019-04-27T15:06:48.257Z,972.16
2019-04-27T15:07:48.500Z,971.93
2019-04-27T15:09:54.445Z,971.92
2019-04-27T15:10:53.951Z,971.94
2019-04-27T15:12:57.087Z,972.02
2019-04-27T15:14:00.099Z,972.20
2019-04-27T15:16:02.604Z,972.32
2019-04-27T15:17:01.721Z,972.27
2019-04-27T15:19:05.886Z,972.60
2019-04-27T15:20:06.121Z,972.53
2019-04-27T15:22:01.199Z,972.55
2019-04-27T15:23:00.151Z,972.53
2019-04-27T15:25:12.461Z,972.56
2019-04-27T15:26:03.854Z,972.53
2019-04-27T15:28:12.113Z,972.50
2019-04-27T15:29:08.223Z,972.53
2019-04-27T15:31:22.145Z,972.55
2019-04-27T15:32:12.634Z,972.59
2019-04-27T15:34:16.801Z,972.72
2019-04-27T15:35:19.631Z,972.72
2019-04-27T15:37:21.182Z,972.73
2019-04-27T15:38:21.419Z,972.76
2019-04-27T15:40:25.586Z,972.70
2019-04-27T15:41:28.920Z,972.76
2019-04-27T15:43:30.898Z,972.84
2019-04-27T15:44:30.204Z,972.81
2019-04-27T15:46:35.022Z,972.93
2019-04-27T15:47:34.606Z,972.98
2019-04-27T15:49:45.007Z,972.88
2019-04-27T15:50:39.015Z,972.92
2019-04-27T15:52:43.171Z,972.94
2019-04-27T15:53:45.956Z,972.99
2019-04-27T15:55:49.572Z,972.89
2019-04-27T15:56:47.811Z,972.89
2019-04-27T15:58:55.637Z,972.90
2019-04-27T15:59:52.192Z,972.94
2019-04-27T16:01:45.295Z,972.95
2019-04-27T16:02:49.394Z,972.95
2019-04-27T16:04:53.374Z,972.89
2019-04-27T16:05:49.931Z,972.85
2019-04-27T16:07:54.079Z,972.93
2019-04-27T16:08:54.314Z,972.76
2019-04-27T16:10:58.914Z,972.79
2019-04-27T16:12:09.561Z,972.77
2019-04-27T16:14:06.302Z,972.73
2019-04-27T16:15:05.134Z,972.72
2019-04-27T16:17:10.470Z,972.63
2019-04-27T16:18:08.783Z,972.61
2019-04-27T16:20:11.668Z,972.68
2019-04-27T16:21:11.903Z,972.63
2019-04-27T16:23:18.058Z,972.62
2019-04-27T16:24:17.003Z,972.60
2019-04-27T16:26:20.460Z,972.62
2019-04-27T16:27:20.699Z,972.60
2019-04-27T16:29:28.005Z,972.55
2019-04-27T16:30:25.086Z,972.46
2019-04-27T16:32:29.255Z,972.29
2019-04-27T16:33:29.490Z,972.21
2019-04-27T16:35:33.663Z,972.26
2019-04-27T16:36:37.849Z,972.28
2019-04-27T16:38:38.804Z,972.40
2019-04-27T16:39:40.908Z,972.58
2019-04-27T16:41:32.974Z,972.65
2019-04-27T16:42:31.623Z,972.75
2019-04-27T16:44:35.771Z,972.96
2019-04-27T16:45:36.008Z,972.99
2019-04-27T16:47:40.180Z,973.17
2019-04-27T16:48:40.417Z,973.17
2019-04-27T16:50:44.583Z,973.17
2019-04-27T16:51:44.825Z,973.21
2019-04-27T16:53:48.970Z,973.21
2019-04-27T16:54:49.809Z,973.19
2019-04-27T16:57:02.184Z,973.16
2019-04-27T16:57:53.608Z,973.15
2019-04-27T17:01:00.152Z,973.15
2019-04-27T17:03:03.321Z,973.10
2019-04-27T17:04:02.405Z,973.04
2019-04-27T17:06:07.922Z,972.95
2019-04-27T17:07:08.702Z,972.94
2019-04-27T17:09:11.765Z,973.01
2019-04-27T17:10:11.194Z,973.04
2019-04-27T17:12:15.366Z,973.02
2019-04-27T17:12:40.261Z,973.19
2019-04-27T17:13:15.604Z,973.08
2019-04-27T17:15:19.750Z,973.03
2019-04-27T17:16:19.987Z,973.05
2019-04-27T17:18:25.459Z,973.01
2019-04-27T17:19:24.390Z,972.98
2019-04-27T17:21:21.155Z,973.07
2019-04-27T17:22:18.311Z,973.09
2019-04-27T17:24:21.879Z,973.07
2019-04-27T17:25:23.449Z,973.05
2019-04-27T17:27:29.168Z,973.09
2019-04-27T17:28:26.510Z,973.06
2019-04-27T17:30:37.231Z,973.04
2019-04-27T17:31:30.902Z,973.01
2019-04-27T17:33:35.065Z,973.07
2019-04-27T17:34:35.306Z,973.09
2019-04-27T17:36:40.307Z,973.15
2019-04-27T17:37:39.708Z,973.19
2019-04-27T17:39:43.860Z,973.27
2019-04-27T17:40:44.100Z,973.32
2019-04-27T17:42:48.288Z,973.32
2019-04-27T17:43:48.504Z,973.35
2019-04-27T17:45:52.650Z,973.34
2019-04-27T17:46:52.887Z,973.35
2019-04-27T17:48:58.595Z,973.33
2019-04-27T17:49:58.371Z,973.33
2019-04-27T17:51:50.394Z,973.36
2019-04-27T17:52:54.759Z,973.32
2019-04-27T17:54:54.782Z,973.39
2019-04-27T17:55:59.686Z,973.37
2019-04-27T17:58:05.105Z,973.38
2019-04-27T17:58:59.431Z,973.44
2019-04-27T18:01:03.577Z,973.45
2019-04-27T18:02:04.672Z,973.40
2019-04-27T18:04:10.505Z,973.35
2019-04-27T18:05:09.509Z,973.36
2019-04-27T18:07:12.381Z,973.35
2019-04-27T18:08:17.475Z,973.39
2019-04-27T18:10:22.394Z,973.40
2019-04-27T18:11:18.611Z,973.39
2019-04-27T18:13:25.647Z,973.44
2019-04-27T18:14:21.406Z,973.45
2019-04-27T18:16:30.311Z,973.45
2019-04-27T18:17:25.787Z,973.44
2019-04-27T18:19:29.956Z,973.42
2019-04-27T18:20:30.193Z,973.42
2019-04-27T18:22:36.451Z,973.39
2019-04-27T18:23:34.596Z,973.38
2019-04-27T18:25:40.363Z,973.37
2019-04-27T18:26:49.081Z,973.35
2019-04-27T18:28:45.876Z,973.41
2019-04-27T18:29:43.385Z,973.38
2019-04-27T18:31:38.228Z,973.45
2019-04-27T18:32:37.932Z,973.55
2019-04-27T18:34:40.875Z,973.55
2019-04-27T18:35:41.107Z,973.55
2019-04-27T18:37:45.278Z,973.59
2019-04-27T18:38:45.510Z,973.63
2019-04-27T18:40:49.664Z,973.69
2019-04-27T18:41:54.088Z,973.68
2019-04-27T18:43:55.842Z,973.76
2019-04-27T18:44:54.311Z,973.76
2019-04-27T18:47:02.187Z,973.76
2019-04-27T18:47:59.371Z,973.77
2019-04-27T18:50:11.136Z,973.85
2019-04-27T18:51:03.093Z,973.92
2019-04-27T18:53:08.230Z,973.94
2019-04-27T18:54:08.127Z,974.01
2019-04-27T18:56:11.646Z,973.94
2019-04-27T18:57:15.203Z,974.00
2019-04-27T18:59:16.051Z,973.94
2019-04-27T19:00:16.282Z,973.96
2019-04-27T19:02:20.433Z,973.92
2019-04-27T19:03:20.667Z,973.95
2019-04-27T19:05:37.270Z,973.94